createdAt,value
2023-02-26T00:00:12.847Z,22.13
2023-02-26T00:02:39.751Z,22.06
2023-02-26T00:05:06.684Z,22.06
2023-02-26T00:07:33.594Z,22.00
2023-02-26T00:10:00.577Z,22.00
2023-02-26T00:12:27.739Z,21.94
2023-02-26T00:14:54.714Z,21.88
2023-02-26T00:17:21.714Z,21.88
2023-02-26T00:19:48.700Z,21.88
2023-02-26T00:22:15.603Z,21.88
2023-02-26T00:24:42.532Z,21.81
2023-02-26T00:27:09.430Z,21.75
2023-02-26T00:29:36.379Z,21.75
2023-02-26T00:32:03.455Z,21.69
2023-02-26T00:34:30.424Z,21.63
2023-02-26T00:36:57.408Z,21.63
2023-02-26T00:39:24.315Z,21.56
2023-02-26T00:41:51.236Z,21.56
2023-02-26T00:44:18.152Z,21.50
2023-02-26T00:46:45.068Z,21.50
2023-02-26T00:49:12.018Z,21.44
2023-02-26T00:51:38.974Z,21.44
2023-02-26T00:54:05.930Z,21.38
2023-02-26T00:56:32.868Z,21.31
2023-02-26T00:58:59.773Z,21.31
2023-02-26T01:01:26.714Z,21.25
2023-02-26T01:03:53.715Z,21.25
2023-02-26T01:06:20.644Z,21.25
2023-02-26T01:08:47.616Z,21.19
2023-02-26T01:11:14.540Z,21.19
2023-02-26T01:13:41.489Z,21.13
2023-02-26T01:16:08.464Z,21.13
2023-02-26T01:18:35.391Z,21.06
2023-02-26T01:21:02.342Z,21.13
2023-02-26T01:23:29.253Z,21.06
2023-02-26T01:25:56.205Z,21.06
2023-02-26T01:28:23.135Z,21.06
2023-02-26T01:30:50.215Z,21.00
2023-02-26T01:33:17.293Z,21.00
2023-02-26T01:35:44.236Z,20.94
2023-02-26T01:38:11.157Z,20.88
2023-02-26T01:40:38.097Z,20.88
2023-02-26T01:43:05.020Z,20.88
2023-02-26T01:45:31.979Z,20.81
2023-02-26T01:47:58.940Z,20.81
2023-02-26T01:50:25.869Z,20.75
2023-02-26T01:52:52.763Z,20.75
2023-02-26T01:55:19.705Z,20.69
2023-02-26T01:57:46.616Z,20.69
2023-02-26T02:00:13.573Z,20.69
2023-02-26T02:02:40.604Z,20.63
2023-02-26T02:05:07.590Z,20.63
2023-02-26T02:07:34.503Z,20.63
2023-02-26T02:10:01.422Z,20.56
2023-02-26T02:12:28.368Z,20.56
2023-02-26T02:14:55.274Z,20.56
2023-02-26T02:17:22.209Z,20.50
2023-02-26T02:19:49.133Z,20.50
2023-02-26T02:22:16.033Z,20.44
2023-02-26T02:24:43.158Z,20.44
2023-02-26T02:27:10.092Z,20.44
2023-02-26T02:29:37.016Z,20.50
2023-02-26T02:32:04.568Z,20.50
2023-02-26T02:34:31.569Z,20.50
2023-02-26T02:36:58.496Z,20.44
2023-02-26T02:39:25.412Z,20.38
2023-02-26T02:41:52.337Z,20.38
2023-02-26T02:44:19.240Z,20.31
2023-02-26T02:46:46.255Z,20.31
2023-02-26T02:49:13.211Z,20.25
2023-02-26T02:51:40.145Z,20.25
2023-02-26T02:54:07.067Z,20.25
2023-02-26T02:56:34.007Z,20.19
2023-02-26T02:59:00.948Z,20.19
2023-02-26T03:01:27.965Z,20.13
2023-02-26T03:03:54.899Z,20.13
2023-02-26T03:06:21.904Z,20.13
2023-02-26T03:08:48.831Z,20.13
2023-02-26T03:11:15.809Z,20.06
2023-02-26T03:13:42.750Z,20.06
2023-02-26T03:16:09.739Z,20.06
2023-02-26T03:18:36.687Z,20.00
2023-02-26T03:21:03.610Z,20.00
2023-02-26T03:23:30.522Z,20.00
2023-02-26T03:25:57.440Z,20.00
2023-02-26T03:28:24.368Z,19.94
2023-02-26T03:30:51.288Z,20.00
2023-02-26T03:33:18.224Z,20.00
2023-02-26T03:35:45.124Z,20.06
2023-02-26T03:38:12.066Z,20.06
2023-02-26T03:40:39.013Z,20.06
2023-02-26T03:43:05.928Z,20.00
2023-02-26T03:45:32.870Z,20.00
2023-02-26T03:47:59.786Z,19.94
2023-02-26T03:50:26.698Z,19.94
2023-02-26T03:52:53.632Z,19.88
2023-02-26T03:55:20.578Z,19.88
2023-02-26T03:57:47.500Z,19.81
2023-02-26T04:00:14.451Z,19.81
2023-02-26T04:02:41.499Z,19.81
2023-02-26T04:05:08.451Z,19.81
2023-02-26T04:07:35.383Z,19.75
2023-02-26T04:10:02.312Z,19.75
2023-02-26T04:12:29.232Z,19.75
2023-02-26T04:14:56.140Z,19.75
2023-02-26T04:17:23.038Z,19.69
2023-02-26T04:19:50.057Z,19.69
2023-02-26T04:22:16.979Z,19.69
2023-02-26T04:24:43.902Z,19.69
2023-02-26T04:27:10.870Z,19.63
2023-02-26T04:29:37.818Z,19.69
2023-02-26T04:32:04.822Z,19.75
2023-02-26T04:34:31.823Z,19.75
2023-02-26T04:36:58.723Z,19.75
2023-02-26T04:39:25.669Z,19.69
2023-02-26T04:41:52.603Z,19.69
2023-02-26T04:44:19.554Z,19.63
2023-02-26T04:46:46.467Z,19.63
2023-02-26T04:49:13.389Z,19.56
2023-02-26T04:51:40.318Z,19.56
2023-02-26T04:54:07.228Z,19.56
2023-02-26T04:56:34.139Z,19.63
2023-02-26T04:59:01.054Z,22.69
2023-02-26T05:01:28.026Z,28.94
2023-02-26T05:03:54.977Z,32.06
2023-02-26T05:06:21.880Z,32.63
2023-02-26T05:08:48.816Z,32.56
2023-02-26T05:11:15.779Z,29.56
2023-02-26T05:13:42.708Z,26.31
2023-02-26T05:16:09.671Z,27.00
2023-02-26T05:18:36.641Z,30.88
2023-02-26T05:21:03.577Z,32.88
2023-02-26T05:23:30.501Z,33.50
2023-02-26T05:25:57.425Z,32.25
2023-02-26T05:28:24.333Z,28.94
2023-02-26T05:30:51.288Z,28.50
2023-02-26T05:33:18.205Z,31.81
2023-02-26T05:35:45.127Z,33.88
2023-02-26T05:38:12.049Z,34.31
2023-02-26T05:40:38.970Z,34.13
2023-02-26T05:43:05.892Z,31.44
2023-02-26T05:45:32.868Z,29.94
2023-02-26T05:47:59.809Z,31.81
2023-02-26T05:50:26.753Z,34.13
2023-02-26T05:52:53.691Z,35.25
2023-02-26T05:55:20.627Z,35.13
2023-02-26T05:57:47.561Z,34.69
2023-02-26T06:00:14.533Z,34.69
2023-02-26T06:02:41.513Z,34.94
2023-02-26T06:05:08.464Z,35.31
2023-02-26T06:07:35.420Z,35.63
2023-02-26T06:10:02.324Z,35.81
2023-02-26T06:12:29.253Z,36.06
2023-02-26T06:14:56.172Z,36.31
2023-02-26T06:17:23.129Z,36.56
2023-02-26T06:19:50.087Z,36.75
2023-02-26T06:22:17.054Z,36.94
2023-02-26T06:24:44.003Z,37.19
2023-02-26T06:27:10.992Z,37.50
2023-02-26T06:29:37.914Z,37.75
2023-02-26T06:32:04.987Z,37.88
2023-02-26T06:34:32.008Z,37.88
2023-02-26T06:36:58.966Z,37.88
2023-02-26T06:39:25.910Z,37.81
2023-02-26T06:41:52.821Z,37.81
2023-02-26T06:44:19.738Z,37.88
2023-02-26T06:46:46.665Z,37.94
2023-02-26T06:49:13.622Z,37.81
2023-02-26T06:51:40.552Z,37.88
2023-02-26T06:54:07.498Z,37.94
2023-02-26T06:56:34.424Z,38.00
2023-02-26T06:59:01.402Z,38.06
2023-02-26T07:01:28.397Z,38.06
2023-02-26T07:03:55.348Z,38.00
2023-02-26T07:06:27.768Z,37.88
2023-02-26T07:08:55.095Z,37.69
2023-02-26T07:11:22.121Z,37.56
2023-02-26T07:13:49.062Z,37.38
2023-02-26T07:16:15.987Z,37.19
2023-02-26T07:18:42.927Z,36.94
2023-02-26T07:21:09.845Z,36.38
2023-02-26T07:23:36.847Z,36.13
2023-02-26T07:26:03.746Z,36.44
2023-02-26T07:28:30.646Z,36.56
2023-02-26T07:30:57.717Z,36.69
2023-02-26T07:33:24.703Z,36.75
2023-02-26T07:35:51.697Z,36.88
2023-02-26T07:38:19.766Z,37.00
2023-02-26T07:40:46.798Z,37.06
2023-02-26T07:43:13.803Z,37.13
2023-02-26T07:45:40.743Z,37.19
2023-02-26T07:48:07.727Z,37.25
2023-02-26T07:50:34.654Z,37.31
2023-02-26T07:53:01.606Z,37.25
2023-02-26T07:55:28.555Z,37.25
2023-02-26T07:57:55.468Z,37.19
2023-02-26T08:00:22.449Z,37.19
2023-02-26T08:02:49.395Z,37.19
2023-02-26T08:05:16.317Z,37.19
2023-02-26T08:07:43.269Z,37.31
2023-02-26T08:10:10.202Z,37.38
2023-02-26T08:12:37.151Z,37.50
2023-02-26T08:15:04.072Z,37.56
2023-02-26T08:17:30.996Z,37.63
2023-02-26T08:19:57.937Z,37.69
2023-02-26T08:22:24.858Z,37.75
2023-02-26T08:24:51.846Z,37.81
2023-02-26T08:27:18.818Z,37.88
2023-02-26T08:29:45.858Z,37.88
2023-02-26T08:32:12.872Z,37.88
2023-02-26T08:34:39.854Z,37.94
2023-02-26T08:37:06.799Z,38.00
2023-02-26T08:39:33.745Z,38.00
2023-02-26T08:42:00.660Z,37.88
2023-02-26T08:44:27.576Z,37.69
2023-02-26T08:46:54.556Z,37.50
2023-02-26T08:49:21.566Z,37.31
2023-02-26T08:51:48.525Z,37.13
2023-02-26T08:54:15.508Z,37.00
2023-02-26T08:56:42.466Z,37.00
2023-02-26T08:59:09.415Z,37.06
2023-02-26T09:01:36.494Z,37.06
2023-02-26T09:04:03.458Z,37.06
2023-02-26T09:06:30.410Z,37.06
2023-02-26T09:08:57.383Z,37.19
2023-02-26T09:11:24.576Z,37.31
2023-02-26T09:13:51.809Z,37.38
2023-02-26T09:16:18.787Z,37.44
2023-02-26T09:18:45.778Z,37.50
2023-02-26T09:21:12.731Z,37.63
2023-02-26T09:23:39.679Z,37.69
2023-02-26T09:26:06.669Z,37.75
2023-02-26T09:28:33.658Z,37.75
2023-02-26T09:31:00.709Z,37.81
2023-02-26T09:33:27.691Z,37.88
2023-02-26T09:35:54.709Z,37.94
2023-02-26T09:38:21.653Z,38.00
2023-02-26T09:40:48.630Z,38.06
2023-02-26T09:43:15.574Z,38.13
2023-02-26T09:45:44.539Z,38.19
2023-02-26T09:48:11.694Z,38.25
2023-02-26T09:50:38.647Z,38.19
2023-02-26T09:53:05.584Z,38.19
2023-02-26T09:55:32.538Z,38.19
2023-02-26T09:57:59.476Z,38.25
2023-02-26T10:00:26.422Z,38.31
2023-02-26T10:02:53.421Z,38.06
2023-02-26T10:05:20.414Z,37.88
2023-02-26T10:07:47.382Z,37.69
2023-02-26T10:10:14.427Z,37.44
2023-02-26T10:12:41.411Z,37.25
2023-02-26T10:15:08.539Z,37.06
2023-02-26T10:17:35.477Z,36.88
2023-02-26T10:20:02.411Z,36.81
2023-02-26T10:22:29.355Z,36.81
2023-02-26T10:24:56.291Z,36.44
2023-02-26T10:27:23.253Z,36.38
2023-02-26T10:29:50.212Z,36.56
2023-02-26T10:32:17.302Z,36.69
2023-02-26T10:34:44.336Z,36.81
2023-02-26T10:37:11.278Z,37.00
2023-02-26T10:39:38.243Z,37.13
2023-02-26T10:42:05.192Z,37.25
2023-02-26T10:44:32.163Z,37.38
2023-02-26T10:46:59.106Z,37.44
2023-02-26T10:49:26.041Z,37.56
2023-02-26T10:51:53.003Z,37.63
2023-02-26T10:54:19.954Z,37.75
2023-02-26T10:56:46.946Z,37.81
2023-02-26T10:59:15.235Z,37.94
2023-02-26T11:01:43.553Z,38.00
2023-02-26T11:04:10.538Z,38.06
2023-02-26T11:06:37.518Z,38.06
2023-02-26T11:09:04.465Z,37.94
2023-02-26T11:11:31.419Z,37.81
2023-02-26T11:13:58.364Z,37.75
2023-02-26T11:16:25.337Z,37.63
2023-02-26T11:18:52.288Z,37.50
2023-02-26T11:21:19.225Z,37.31
2023-02-26T11:23:46.173Z,37.13
2023-02-26T11:26:13.128Z,36.94
2023-02-26T11:28:40.071Z,36.75
2023-02-26T11:31:07.110Z,36.69
2023-02-26T11:33:34.114Z,36.63
2023-02-26T11:36:01.046Z,36.19
2023-02-26T11:38:28.056Z,35.81
2023-02-26T11:40:55.064Z,36.19
2023-02-26T11:43:22.009Z,36.44
2023-02-26T11:45:49.032Z,36.56
2023-02-26T11:48:16.041Z,36.75
2023-02-26T11:50:43.530Z,36.81
2023-02-26T11:53:10.532Z,37.00
2023-02-26T11:55:37.482Z,37.06
2023-02-26T11:58:04.478Z,37.19
2023-02-26T12:00:31.417Z,37.31
2023-02-26T12:02:58.396Z,37.38
2023-02-26T12:05:25.358Z,37.44
2023-02-26T12:07:52.316Z,37.50
2023-02-26T12:10:19.257Z,37.63
2023-02-26T12:12:46.201Z,37.63
2023-02-26T12:15:13.146Z,37.75
2023-02-26T12:17:40.104Z,37.75
2023-02-26T12:20:07.061Z,37.75
2023-02-26T12:22:34.075Z,37.63
2023-02-26T12:25:01.064Z,37.56
2023-02-26T12:27:28.052Z,37.50
2023-02-26T12:29:54.997Z,37.44
2023-02-26T12:32:21.986Z,37.25
2023-02-26T12:34:49.014Z,37.06
2023-02-26T12:37:15.933Z,36.88
2023-02-26T12:39:42.884Z,36.69
2023-02-26T12:42:09.864Z,36.50
2023-02-26T12:44:36.832Z,36.31
2023-02-26T12:47:03.785Z,36.13
2023-02-26T12:49:30.697Z,36.06
2023-02-26T12:51:57.645Z,36.19
2023-02-26T12:54:24.598Z,36.31
2023-02-26T12:56:51.536Z,36.31
2023-02-26T12:59:18.565Z,36.38
2023-02-26T13:01:59.675Z,36.50
2023-02-26T13:04:27.723Z,36.63
2023-02-26T13:06:54.680Z,36.69
2023-02-26T13:09:21.677Z,36.81
2023-02-26T13:11:48.622Z,36.94
2023-02-26T13:14:15.569Z,37.00
2023-02-26T13:16:42.640Z,37.13
2023-02-26T13:19:09.600Z,37.25
2023-02-26T13:21:36.540Z,37.31
2023-02-26T13:24:03.584Z,37.38
2023-02-26T13:26:30.523Z,37.38
2023-02-26T13:28:57.457Z,37.38
2023-02-26T13:31:27.158Z,37.38
2023-02-26T13:33:54.360Z,37.31
2023-02-26T13:36:21.456Z,37.19
2023-02-26T13:38:48.413Z,37.06
2023-02-26T13:41:15.371Z,36.88
2023-02-26T13:43:42.312Z,36.75
2023-02-26T13:46:09.322Z,36.56
2023-02-26T13:48:36.336Z,36.38
2023-02-26T13:51:03.297Z,36.00
2023-02-26T13:53:30.235Z,35.56
2023-02-26T13:55:57.239Z,35.63
2023-02-26T13:58:24.184Z,35.88
2023-02-26T14:00:51.177Z,36.00
2023-02-26T14:03:18.107Z,36.13
2023-02-26T14:05:45.062Z,36.25
2023-02-26T14:08:12.002Z,36.31
2023-02-26T14:10:38.988Z,36.38
2023-02-26T14:13:05.933Z,36.44
2023-02-26T14:15:32.956Z,36.50
2023-02-26T14:18:00.850Z,36.56
2023-02-26T14:20:27.905Z,36.63
2023-02-26T14:22:54.927Z,36.75
2023-02-26T14:25:21.861Z,36.81
2023-02-26T14:27:48.854Z,36.75
2023-02-26T14:30:15.810Z,36.69
2023-02-26T14:32:42.785Z,36.56
2023-02-26T14:35:09.737Z,36.44
2023-02-26T14:37:36.722Z,36.31
2023-02-26T14:40:03.718Z,36.13
2023-02-26T14:42:30.781Z,36.00
2023-02-26T14:44:57.730Z,36.00
2023-02-26T14:47:26.260Z,36.19
2023-02-26T14:49:54.436Z,36.31
2023-02-26T14:52:21.381Z,36.44
2023-02-26T14:54:48.361Z,36.50
2023-02-26T14:57:15.316Z,36.63
2023-02-26T14:59:42.267Z,36.75
2023-02-26T15:02:09.345Z,36.88
2023-02-26T15:04:36.350Z,37.00
2023-02-26T15:07:03.398Z,37.13
2023-02-26T15:09:30.348Z,37.19
2023-02-26T15:11:57.291Z,37.31
2023-02-26T15:14:24.209Z,37.38
2023-02-26T15:16:51.179Z,37.31
2023-02-26T15:19:18.147Z,37.19
2023-02-26T15:21:46.235Z,37.19
2023-02-26T15:24:13.189Z,37.13
2023-02-26T15:26:40.131Z,37.06
2023-02-26T15:29:07.106Z,36.94
2023-02-26T15:31:34.153Z,36.81
2023-02-26T15:34:01.182Z,36.63
2023-02-26T15:36:28.273Z,36.44
2023-02-26T15:38:55.455Z,36.31
2023-02-26T15:41:22.495Z,36.13
2023-02-26T15:43:49.424Z,36.00
2023-02-26T15:46:16.454Z,36.00
2023-02-26T15:48:43.446Z,36.06
2023-02-26T15:51:10.416Z,36.13
2023-02-26T15:53:37.431Z,36.13
2023-02-26T15:56:04.406Z,36.25
2023-02-26T15:58:31.349Z,36.31
2023-02-26T16:00:58.367Z,36.44
2023-02-26T16:03:25.431Z,36.44
2023-02-26T16:05:52.387Z,36.50
2023-02-26T16:08:19.325Z,36.63
2023-02-26T16:10:46.351Z,36.69
2023-02-26T16:13:13.279Z,36.75
2023-02-26T16:15:40.280Z,36.88
2023-02-26T16:18:07.280Z,36.94
2023-02-26T16:20:34.217Z,36.94
2023-02-26T16:23:01.168Z,36.88
2023-02-26T16:25:28.098Z,36.75
2023-02-26T16:27:55.036Z,36.63
2023-02-26T16:30:22.012Z,36.50
2023-02-26T16:32:49.026Z,36.31
2023-02-26T16:35:16.031Z,36.19
2023-02-26T16:37:43.004Z,36.19
2023-02-26T16:40:09.949Z,36.31
2023-02-26T16:42:36.887Z,36.44
2023-02-26T16:45:03.861Z,36.44
2023-02-26T16:47:30.803Z,36.50
2023-02-26T16:49:57.763Z,36.69
2023-02-26T16:52:24.749Z,36.81
2023-02-26T16:54:51.696Z,36.94
2023-02-26T16:57:18.728Z,37.06
2023-02-26T16:59:45.676Z,37.13
2023-02-26T17:02:12.627Z,37.25
2023-02-26T17:04:39.566Z,37.38
2023-02-26T17:07:06.524Z,37.38
2023-02-26T17:09:33.465Z,37.38
2023-02-26T17:12:00.430Z,37.44
2023-02-26T17:14:27.377Z,37.50
2023-02-26T17:16:54.318Z,37.44
2023-02-26T17:19:21.273Z,37.31
2023-02-26T17:21:48.398Z,37.31
2023-02-26T17:24:15.366Z,37.19
2023-02-26T17:26:42.478Z,37.06
2023-02-26T17:29:09.434Z,36.88
2023-02-26T17:31:36.411Z,36.69
2023-02-26T17:34:03.387Z,36.50
2023-02-26T17:36:30.304Z,36.31
2023-02-26T17:38:57.242Z,36.19
2023-02-26T17:41:24.527Z,36.13
2023-02-26T17:43:51.728Z,36.13
2023-02-26T17:46:18.654Z,36.13
2023-02-26T17:48:45.677Z,36.13
2023-02-26T17:51:15.108Z,36.13
2023-02-26T17:53:42.749Z,36.19
2023-02-26T17:56:09.699Z,36.19
2023-02-26T17:58:36.652Z,36.25
2023-02-26T18:01:03.699Z,36.31
2023-02-26T18:03:30.723Z,36.38
2023-02-26T18:05:57.696Z,36.44
2023-02-26T18:08:24.694Z,36.50
2023-02-26T18:10:51.655Z,36.50
2023-02-26T18:13:18.610Z,36.44
2023-02-26T18:15:45.611Z,36.31
2023-02-26T18:18:12.684Z,36.19
2023-02-26T18:20:39.663Z,36.19
2023-02-26T18:23:06.637Z,36.19
2023-02-26T18:25:33.642Z,36.25
2023-02-26T18:28:00.614Z,36.25
2023-02-26T18:30:27.583Z,36.31
2023-02-26T18:32:54.645Z,36.38
2023-02-26T18:35:21.705Z,36.44
2023-02-26T18:37:48.638Z,36.50
2023-02-26T18:40:15.610Z,36.63
2023-02-26T18:42:42.579Z,36.75
2023-02-26T18:45:09.529Z,36.88
2023-02-26T18:47:36.625Z,37.00
2023-02-26T18:50:03.627Z,37.13
2023-02-26T18:52:30.579Z,37.19
2023-02-26T18:54:57.575Z,37.25
2023-02-26T18:57:24.501Z,37.38
2023-02-26T18:59:51.545Z,37.50
2023-02-26T19:02:18.561Z,37.56
2023-02-26T19:04:47.178Z,37.63
2023-02-26T19:07:14.297Z,37.50
2023-02-26T19:09:41.287Z,37.44
2023-02-26T19:12:10.201Z,37.38
2023-02-26T19:14:37.795Z,37.25
2023-02-26T19:17:04.733Z,37.13
2023-02-26T19:19:31.770Z,37.00
2023-02-26T19:21:58.714Z,36.69
2023-02-26T19:24:25.649Z,36.13
2023-02-26T19:26:52.627Z,36.06
2023-02-26T19:29:19.579Z,36.25
2023-02-26T19:31:46.677Z,36.38
2023-02-26T19:34:13.735Z,36.50
2023-02-26T19:36:40.701Z,36.56
2023-02-26T19:39:08.037Z,36.63
2023-02-26T19:41:35.024Z,36.75
2023-02-26T19:44:01.993Z,36.81
2023-02-26T19:46:28.951Z,36.88
2023-02-26T19:48:55.925Z,36.94
2023-02-26T19:51:22.863Z,36.94
2023-02-26T19:53:49.842Z,36.81
2023-02-26T19:56:16.768Z,36.69
2023-02-26T19:58:43.732Z,36.56
2023-02-26T20:01:10.670Z,36.44
2023-02-26T20:03:37.636Z,36.25
2023-02-26T20:06:04.611Z,36.00
2023-02-26T20:08:31.540Z,35.69
2023-02-26T20:10:58.533Z,35.44
2023-02-26T20:13:25.505Z,35.13
2023-02-26T20:15:53.512Z,34.88
2023-02-26T20:18:20.749Z,34.56
2023-02-26T20:20:47.688Z,34.25
2023-02-26T20:23:14.635Z,34.00
2023-02-26T20:25:41.566Z,33.69
2023-02-26T20:28:08.518Z,33.38
2023-02-26T20:30:35.530Z,33.06
2023-02-26T20:33:02.585Z,32.75
2023-02-26T20:35:29.605Z,32.50
2023-02-26T20:37:56.556Z,32.19
2023-02-26T20:40:23.512Z,31.94
2023-02-26T20:42:50.462Z,31.69
2023-02-26T20:45:17.429Z,31.44
2023-02-26T20:47:44.392Z,31.19
2023-02-26T20:50:11.342Z,31.00
2023-02-26T20:52:38.273Z,30.75
2023-02-26T20:55:05.211Z,30.56
2023-02-26T20:57:32.158Z,30.31
2023-02-26T20:59:59.110Z,30.06
2023-02-26T21:02:26.054Z,29.88
2023-02-26T21:04:53.061Z,29.69
2023-02-26T21:07:20.016Z,29.44
2023-02-26T21:09:46.949Z,29.25
2023-02-26T21:12:13.891Z,29.06
2023-02-26T21:14:40.875Z,28.88
2023-02-26T21:17:07.836Z,28.69
2023-02-26T21:19:34.786Z,28.50
2023-02-26T21:22:01.745Z,28.31
2023-02-26T21:24:28.756Z,28.19
2023-02-26T21:26:55.702Z,28.00
2023-02-26T21:29:22.621Z,27.88
2023-02-26T21:31:49.716Z,27.69
2023-02-26T21:34:32.751Z,27.50
2023-02-26T21:37:00.337Z,27.38
2023-02-26T21:39:27.295Z,27.25
2023-02-26T21:41:54.286Z,27.06
2023-02-26T21:44:21.243Z,26.94
2023-02-26T21:46:48.174Z,26.81
2023-02-26T21:49:15.132Z,26.69
2023-02-26T21:51:42.075Z,26.56
2023-02-26T21:54:09.070Z,26.44
2023-02-26T21:56:36.017Z,26.31
2023-02-26T21:59:02.949Z,26.19
2023-02-26T22:01:30.158Z,26.06
2023-02-26T22:03:57.255Z,25.94
2023-02-26T22:06:24.227Z,25.88
2023-02-26T22:08:51.288Z,25.75
2023-02-26T22:11:18.248Z,25.63
2023-02-26T22:13:45.201Z,25.50
2023-02-26T22:16:12.165Z,25.44
2023-02-26T22:18:39.142Z,25.31
2023-02-26T22:21:06.073Z,25.25
2023-02-26T22:23:33.052Z,25.13
2023-02-26T22:26:00.019Z,25.00
2023-02-26T22:28:27.012Z,24.88
2023-02-26T22:30:53.994Z,24.75
2023-02-26T22:33:21.028Z,24.63
2023-02-26T22:35:48.114Z,24.50
2023-02-26T22:38:15.061Z,24.38
2023-02-26T22:40:42.030Z,24.25
2023-02-26T22:43:09.044Z,24.13
2023-02-26T22:45:36.026Z,24.00
2023-02-26T22:48:03.052Z,23.88
2023-02-26T22:50:30.020Z,23.81
2023-02-26T22:52:56.976Z,23.75
2023-02-26T22:55:23.932Z,23.69
2023-02-26T22:57:50.876Z,23.56
2023-02-26T23:00:17.797Z,23.50
2023-02-26T23:02:44.743Z,23.44
2023-02-26T23:05:11.712Z,23.31
2023-02-26T23:07:38.681Z,23.25
2023-02-26T23:10:05.651Z,23.13
2023-02-26T23:12:32.638Z,23.06
2023-02-26T23:14:59.558Z,22.94
2023-02-26T23:17:26.524Z,22.88
2023-02-26T23:19:53.450Z,22.75
2023-02-26T23:22:21.968Z,22.63
2023-02-26T23:24:49.044Z,22.56
2023-02-26T23:27:15.999Z,22.44
2023-02-26T23:29:42.928Z,22.38
2023-02-26T23:32:09.928Z,22.31
2023-02-26T23:34:36.926Z,22.25
2023-02-26T23:37:03.898Z,22.13
2023-02-26T23:39:30.809Z,22.06
2023-02-26T23:41:57.754Z,22.00
2023-02-26T23:44:24.705Z,21.94
2023-02-26T23:46:51.653Z,21.88
2023-02-26T23:49:18.571Z,21.81
2023-02-26T23:51:45.530Z,21.75
2023-02-26T23:54:12.492Z,21.69
2023-02-26T23:56:39.431Z,21.56
2023-02-26T23:59:06.378Z,21.50
